sensor_id;sensor_type;location;lat;lon;timestamp;P1;durP1;ratioP1;P2;durP2;ratioP2
53267;SDS011;39156;51.176;6.738;2023-04-15T00:00:44;40.57;;;38.27;;
53267;SDS011;39156;51.176;6.738;2023-04-15T00:03:10;40.28;;;37.97;;
53267;SDS011;39156;51.176;6.738;2023-04-15T00:05:36;41.67;;;38.50;;
53267;SDS011;39156;51.176;6.738;2023-04-15T00:08:02;40.28;;;37.92;;
53267;SDS011;39156;51.176;6.738;2023-04-15T00:10:28;41.20;;;38.70;;
53267;SDS011;39156;51.176;6.738;2023-04-15T00:12:53;39.67;;;37.33;;
53267;SDS011;39156;51.176;6.738;2023-04-15T00:15:19;40.17;;;37.88;;
53267;SDS011;39156;51.176;6.738;2023-04-15T00:17:45;41.08;;;38.67;;
53267;SDS011;39156;51.176;6.738;2023-04-15T00:20:11;39.97;;;37.67;;
53267;SDS011;39156;51.176;6.738;2023-04-15T00:22:36;41.10;;;38.63;;
53267;SDS011;39156;51.176;6.738;2023-04-15T00:25:02;40.72;;;38.20;;
53267;SDS011;39156;51.176;6.738;2023-04-15T00:27:28;41.15;;;38.72;;
53267;SDS011;39156;51.176;6.738;2023-04-15T00:29:54;40.95;;;38.50;;
53267;SDS011;39156;51.176;6.738;2023-04-15T00:32:20;41.22;;;38.88;;
53267;SDS011;39156;51.176;6.738;2023-04-15T00:34:46;40.88;;;38.40;;
53267;SDS011;39156;51.176;6.738;2023-04-15T00:37:11;41.17;;;38.75;;
53267;SDS011;39156;51.176;6.738;2023-04-15T00:39:37;41.88;;;39.38;;
53267;SDS011;39156;51.176;6.738;2023-04-15T00:42:03;40.90;;;38.33;;
53267;SDS011;39156;51.176;6.738;2023-04-15T00:44:29;41.33;;;38.83;;
53267;SDS011;39156;51.176;6.738;2023-04-15T00:46:56;41.08;;;38.58;;
53267;SDS011;39156;51.176;6.738;2023-04-15T00:49:25;41.03;;;38.60;;
53267;SDS011;39156;51.176;6.738;2023-04-15T00:51:52;43.00;;;40.40;;
53267;SDS011;39156;51.176;6.738;2023-04-15T00:54:18;42.92;;;40.15;;
53267;SDS011;39156;51.176;6.738;2023-04-15T00:56:45;41.63;;;39.22;;
53267;SDS011;39156;51.176;6.738;2023-04-15T00:59:11;42.22;;;39.72;;
53267;SDS011;39156;51.176;6.738;2023-04-15T01:01:37;41.88;;;39.35;;
53267;SDS011;39156;51.176;6.738;2023-04-15T01:04:03;41.67;;;39.35;;
53267;SDS011;39156;51.176;6.738;2023-04-15T01:06:30;42.15;;;39.58;;
53267;SDS011;39156;51.176;6.738;2023-04-15T01:08:56;42.25;;;39.65;;
53267;SDS011;39156;51.176;6.738;2023-04-15T01:11:23;42.05;;;39.55;;
53267;SDS011;39156;51.176;6.738;2023-04-15T01:13:50;41.90;;;39.20;;
53267;SDS011;39156;51.176;6.738;2023-04-15T01:18:43;42.90;;;40.22;;
53267;SDS011;39156;51.176;6.738;2023-04-15T01:21:09;42.53;;;40.05;;
53267;SDS011;39156;51.176;6.738;2023-04-15T01:23:35;42.75;;;40.05;;
53267;SDS011;39156;51.176;6.738;2023-04-15T01:28:29;42.60;;;39.90;;
53267;SDS011;39156;51.176;6.738;2023-04-15T01:31:08;43.67;;;41.15;;
53267;SDS011;39156;51.176;6.738;2023-04-15T01:33:38;43.17;;;40.33;;
53267;SDS011;39156;51.176;6.738;2023-04-15T01:36:06;43.35;;;40.60;;
53267;SDS011;39156;51.176;6.738;2023-04-15T01:38:34;42.85;;;40.15;;
53267;SDS011;39156;51.176;6.738;2023-04-15T01:41:00;44.47;;;41.58;;
53267;SDS011;39156;51.176;6.738;2023-04-15T01:43:28;44.42;;;41.42;;
53267;SDS011;39156;51.176;6.738;2023-04-15T01:45:54;43.67;;;40.97;;
53267;SDS011;39156;51.176;6.738;2023-04-15T01:48:20;43.83;;;40.85;;
53267;SDS011;39156;51.176;6.738;2023-04-15T01:50:47;45.25;;;42.20;;
53267;SDS011;39156;51.176;6.738;2023-04-15T01:53:13;44.80;;;41.80;;
53267;SDS011;39156;51.176;6.738;2023-04-15T01:55:39;43.93;;;41.07;;
53267;SDS011;39156;51.176;6.738;2023-04-15T01:58:05;44.53;;;41.63;;
53267;SDS011;39156;51.176;6.738;2023-04-15T02:00:31;43.13;;;40.50;;
53267;SDS011;39156;51.176;6.738;2023-04-15T02:02:57;45.55;;;42.25;;
53267;SDS011;39156;51.176;6.738;2023-04-15T02:05:23;45.65;;;42.40;;
53267;SDS011;39156;51.176;6.738;2023-04-15T02:07:49;43.25;;;40.65;;
53267;SDS011;39156;51.176;6.738;2023-04-15T02:10:16;43.80;;;41.03;;
53267;SDS011;39156;51.176;6.738;2023-04-15T02:12:41;44.38;;;41.55;;
53267;SDS011;39156;51.176;6.738;2023-04-15T02:15:08;45.05;;;42.08;;
53267;SDS011;39156;51.176;6.738;2023-04-15T02:17:34;44.40;;;41.60;;
53267;SDS011;39156;51.176;6.738;2023-04-15T02:20:03;44.17;;;41.28;;
53267;SDS011;39156;51.176;6.738;2023-04-15T02:22:30;44.28;;;41.63;;
53267;SDS011;39156;51.176;6.738;2023-04-15T02:24:56;44.28;;;41.47;;
53267;SDS011;39156;51.176;6.738;2023-04-15T02:27:23;44.30;;;41.30;;
53267;SDS011;39156;51.176;6.738;2023-04-15T02:29:48;44.45;;;41.42;;
53267;SDS011;39156;51.176;6.738;2023-04-15T02:32:15;43.25;;;40.65;;
53267;SDS011;39156;51.176;6.738;2023-04-15T02:34:41;44.03;;;41.22;;
53267;SDS011;39156;51.176;6.738;2023-04-15T02:37:07;44.42;;;41.72;;
53267;SDS011;39156;51.176;6.738;2023-04-15T02:39:35;44.40;;;41.67;;
53267;SDS011;39156;51.176;6.738;2023-04-15T02:42:01;42.90;;;40.30;;
53267;SDS011;39156;51.176;6.738;2023-04-15T02:44:27;43.53;;;40.63;;
53267;SDS011;39156;51.176;6.738;2023-04-15T02:46:53;44.15;;;41.45;;
53267;SDS011;39156;51.176;6.738;2023-04-15T02:49:22;42.55;;;40.05;;
53267;SDS011;39156;51.176;6.738;2023-04-15T02:51:48;43.92;;;41.33;;
53267;SDS011;39156;51.176;6.738;2023-04-15T02:54:20;43.38;;;40.78;;
53267;SDS011;39156;51.176;6.738;2023-04-15T02:56:47;44.00;;;41.33;;
53267;SDS011;39156;51.176;6.738;2023-04-15T02:59:13;43.33;;;40.67;;
53267;SDS011;39156;51.176;6.738;2023-04-15T03:01:39;44.22;;;41.60;;
53267;SDS011;39156;51.176;6.738;2023-04-15T03:04:05;42.72;;;40.13;;
53267;SDS011;39156;51.176;6.738;2023-04-15T03:06:32;42.90;;;40.28;;
53267;SDS011;39156;51.176;6.738;2023-04-15T03:08:59;43.67;;;40.90;;
53267;SDS011;39156;51.176;6.738;2023-04-15T03:11:26;43.53;;;40.92;;
53267;SDS011;39156;51.176;6.738;2023-04-15T03:13:53;43.85;;;41.45;;
53267;SDS011;39156;51.176;6.738;2023-04-15T03:16:19;42.58;;;40.08;;
53267;SDS011;39156;51.176;6.738;2023-04-15T03:18:45;43.95;;;41.38;;
53267;SDS011;39156;51.176;6.738;2023-04-15T03:21:10;42.80;;;40.40;;
53267;SDS011;39156;51.176;6.738;2023-04-15T03:23:36;42.20;;;39.80;;
53267;SDS011;39156;51.176;6.738;2023-04-15T03:26:02;43.22;;;40.63;;
53267;SDS011;39156;51.176;6.738;2023-04-15T03:28:29;42.80;;;40.45;;
53267;SDS011;39156;51.176;6.738;2023-04-15T03:30:55;42.30;;;39.40;;
53267;SDS011;39156;51.176;6.738;2023-04-15T03:33:21;42.65;;;40.25;;
53267;SDS011;39156;51.176;6.738;2023-04-15T03:35:46;43.47;;;40.78;;
53267;SDS011;39156;51.176;6.738;2023-04-15T03:38:12;43.00;;;40.40;;
53267;SDS011;39156;51.176;6.738;2023-04-15T03:40:41;43.30;;;40.50;;
53267;SDS011;39156;51.176;6.738;2023-04-15T03:43:07;43.15;;;40.65;;
53267;SDS011;39156;51.176;6.738;2023-04-15T03:45:33;42.03;;;39.63;;
53267;SDS011;39156;51.176;6.738;2023-04-15T03:47:59;43.65;;;41.15;;
53267;SDS011;39156;51.176;6.738;2023-04-15T03:50:25;43.83;;;41.13;;
53267;SDS011;39156;51.176;6.738;2023-04-15T03:52:51;43.80;;;41.20;;
53267;SDS011;39156;51.176;6.738;2023-04-15T03:55:17;44.13;;;41.53;;
53267;SDS011;39156;51.176;6.738;2023-04-15T03:57:43;44.43;;;41.87;;
53267;SDS011;39156;51.176;6.738;2023-04-15T04:00:09;43.28;;;40.67;;
53267;SDS011;39156;51.176;6.738;2023-04-15T04:02:35;44.03;;;41.42;;
53267;SDS011;39156;51.176;6.738;2023-04-15T04:05:01;44.55;;;41.85;;
53267;SDS011;39156;51.176;6.738;2023-04-15T04:07:27;44.85;;;42.05;;
53267;SDS011;39156;51.176;6.738;2023-04-15T04:09:52;44.28;;;41.38;;
53267;SDS011;39156;51.176;6.738;2023-04-15T04:12:18;43.40;;;40.55;;
53267;SDS011;39156;51.176;6.738;2023-04-15T04:14:44;43.55;;;41.05;;
53267;SDS011;39156;51.176;6.738;2023-04-15T04:17:10;43.72;;;41.22;;
53267;SDS011;39156;51.176;6.738;2023-04-15T04:19:35;44.40;;;41.80;;
53267;SDS011;39156;51.176;6.738;2023-04-15T04:22:01;44.40;;;41.15;;
53267;SDS011;39156;51.176;6.738;2023-04-15T04:24:27;43.17;;;40.67;;
53267;SDS011;39156;51.176;6.738;2023-04-15T04:26:52;44.83;;;41.92;;
53267;SDS011;39156;51.176;6.738;2023-04-15T04:29:18;44.03;;;41.42;;
53267;SDS011;39156;51.176;6.738;2023-04-15T04:31:44;44.58;;;41.97;;
53267;SDS011;39156;51.176;6.738;2023-04-15T04:34:10;44.25;;;41.72;;
53267;SDS011;39156;51.176;6.738;2023-04-15T04:36:36;43.65;;;41.15;;
53267;SDS011;39156;51.176;6.738;2023-04-15T04:39:02;44.30;;;41.72;;
53267;SDS011;39156;51.176;6.738;2023-04-15T04:41:28;44.40;;;41.72;;
53267;SDS011;39156;51.176;6.738;2023-04-15T04:43:53;44.45;;;41.78;;
53267;SDS011;39156;51.176;6.738;2023-04-15T04:46:19;44.33;;;41.67;;
53267;SDS011;39156;51.176;6.738;2023-04-15T04:48:45;45.50;;;42.88;;
53267;SDS011;39156;51.176;6.738;2023-04-15T04:51:11;45.92;;;42.92;;
53267;SDS011;39156;51.176;6.738;2023-04-15T04:53:36;44.28;;;41.63;;
53267;SDS011;39156;51.176;6.738;2023-04-15T04:56:03;45.55;;;42.53;;
53267;SDS011;39156;51.176;6.738;2023-04-15T04:58:28;43.67;;;41.08;;
53267;SDS011;39156;51.176;6.738;2023-04-15T05:00:54;43.53;;;40.75;;
53267;SDS011;39156;51.176;6.738;2023-04-15T05:03:20;42.80;;;40.15;;
53267;SDS011;39156;51.176;6.738;2023-04-15T05:05:46;44.08;;;41.22;;
53267;SDS011;39156;51.176;6.738;2023-04-15T05:08:13;44.30;;;41.63;;
53267;SDS011;39156;51.176;6.738;2023-04-15T05:10:40;43.67;;;41.17;;
53267;SDS011;39156;51.176;6.738;2023-04-15T05:13:05;43.72;;;41.03;;
53267;SDS011;39156;51.176;6.738;2023-04-15T05:15:31;44.25;;;41.13;;
53267;SDS011;39156;51.176;6.738;2023-04-15T05:20:24;42.60;;;40.00;;
53267;SDS011;39156;51.176;6.738;2023-04-15T05:22:50;43.58;;;40.97;;
53267;SDS011;39156;51.176;6.738;2023-04-15T05:25:16;44.17;;;41.22;;
53267;SDS011;39156;51.176;6.738;2023-04-15T05:27:41;43.95;;;41.00;;
53267;SDS011;39156;51.176;6.738;2023-04-15T05:30:07;43.88;;;40.97;;
53267;SDS011;39156;51.176;6.738;2023-04-15T05:32:33;45.28;;;42.08;;
53267;SDS011;39156;51.176;6.738;2023-04-15T05:34:59;43.42;;;40.42;;
53267;SDS011;39156;51.176;6.738;2023-04-15T05:37:25;42.47;;;39.83;;
53267;SDS011;39156;51.176;6.738;2023-04-15T05:39:51;42.25;;;39.80;;
53267;SDS011;39156;51.176;6.738;2023-04-15T05:42:16;43.08;;;40.28;;
53267;SDS011;39156;51.176;6.738;2023-04-15T05:44:42;44.53;;;41.72;;
53267;SDS011;39156;51.176;6.738;2023-04-15T05:47:08;44.70;;;41.83;;
53267;SDS011;39156;51.176;6.738;2023-04-15T05:49:34;44.42;;;41.53;;
53267;SDS011;39156;51.176;6.738;2023-04-15T05:52:00;44.42;;;41.53;;
53267;SDS011;39156;51.176;6.738;2023-04-15T05:54:26;44.58;;;41.90;;
53267;SDS011;39156;51.176;6.738;2023-04-15T05:56:52;44.47;;;41.72;;
53267;SDS011;39156;51.176;6.738;2023-04-15T05:59:18;43.80;;;40.93;;
53267;SDS011;39156;51.176;6.738;2023-04-15T06:01:44;43.78;;;41.10;;
53267;SDS011;39156;51.176;6.738;2023-04-15T06:04:10;43.42;;;40.63;;
53267;SDS011;39156;51.176;6.738;2023-04-15T06:06:36;42.92;;;40.13;;
53267;SDS011;39156;51.176;6.738;2023-04-15T06:09:02;42.10;;;39.50;;
53267;SDS011;39156;51.176;6.738;2023-04-15T06:11:28;42.23;;;39.73;;
53267;SDS011;39156;51.176;6.738;2023-04-15T06:13:54;43.60;;;40.90;;
53267;SDS011;39156;51.176;6.738;2023-04-15T06:16:20;42.58;;;39.85;;
53267;SDS011;39156;51.176;6.738;2023-04-15T06:18:47;43.85;;;41.10;;
53267;SDS011;39156;51.176;6.738;2023-04-15T06:21:13;42.58;;;40.08;;
53267;SDS011;39156;51.176;6.738;2023-04-15T06:23:39;43.90;;;40.72;;
53267;SDS011;39156;51.176;6.738;2023-04-15T06:26:05;43.95;;;41.00;;
53267;SDS011;39156;51.176;6.738;2023-04-15T06:28:31;43.73;;;40.33;;
53267;SDS011;39156;51.176;6.738;2023-04-15T06:30:57;43.20;;;40.60;;
53267;SDS011;39156;51.176;6.738;2023-04-15T06:33:23;44.03;;;40.92;;
53267;SDS011;39156;51.176;6.738;2023-04-15T06:35:48;44.08;;;40.58;;
53267;SDS011;39156;51.176;6.738;2023-04-15T06:38:14;44.10;;;41.30;;
53267;SDS011;39156;51.176;6.738;2023-04-15T06:40:40;42.35;;;39.50;;
53267;SDS011;39156;51.176;6.738;2023-04-15T06:43:06;42.83;;;39.95;;
53267;SDS011;39156;51.176;6.738;2023-04-15T06:45:33;43.45;;;40.60;;
53267;SDS011;39156;51.176;6.738;2023-04-15T06:47:58;42.55;;;39.75;;
53267;SDS011;39156;51.176;6.738;2023-04-15T06:50:24;42.97;;;40.38;;
53267;SDS011;39156;51.176;6.738;2023-04-15T06:52:52;43.15;;;40.40;;
53267;SDS011;39156;51.176;6.738;2023-04-15T06:55:19;42.33;;;39.67;;
53267;SDS011;39156;51.176;6.738;2023-04-15T06:57:45;40.55;;;38.10;;
53267;SDS011;39156;51.176;6.738;2023-04-15T07:00:11;41.55;;;38.92;;
53267;SDS011;39156;51.176;6.738;2023-04-15T07:02:37;42.58;;;39.88;;
53267;SDS011;39156;51.176;6.738;2023-04-15T07:05:03;40.85;;;38.28;;
53267;SDS011;39156;51.176;6.738;2023-04-15T07:07:31;41.42;;;38.92;;
53267;SDS011;39156;51.176;6.738;2023-04-15T07:09:56;41.80;;;39.30;;
53267;SDS011;39156;51.176;6.738;2023-04-15T07:12:22;41.08;;;38.47;;
53267;SDS011;39156;51.176;6.738;2023-04-15T07:14:48;40.67;;;38.22;;
53267;SDS011;39156;51.176;6.738;2023-04-15T07:17:14;39.33;;;36.83;;
53267;SDS011;39156;51.176;6.738;2023-04-15T07:19:39;39.58;;;37.28;;
53267;SDS011;39156;51.176;6.738;2023-04-15T07:22:05;39.38;;;36.97;;
53267;SDS011;39156;51.176;6.738;2023-04-15T07:24:31;39.85;;;37.42;;
53267;SDS011;39156;51.176;6.738;2023-04-15T07:26:57;36.73;;;34.10;;
53267;SDS011;39156;51.176;6.738;2023-04-15T07:29:23;36.47;;;34.27;;
53267;SDS011;39156;51.176;6.738;2023-04-15T07:31:51;37.95;;;35.55;;
53267;SDS011;39156;51.176;6.738;2023-04-15T07:34:17;36.47;;;34.30;;
53267;SDS011;39156;51.176;6.738;2023-04-15T07:36:44;37.35;;;35.10;;
53267;SDS011;39156;51.176;6.738;2023-04-15T07:39:10;37.07;;;34.97;;
53267;SDS011;39156;51.176;6.738;2023-04-15T07:41:36;35.17;;;33.27;;
53267;SDS011;39156;51.176;6.738;2023-04-15T07:44:02;36.05;;;33.97;;
53267;SDS011;39156;51.176;6.738;2023-04-15T07:46:28;35.33;;;33.17;;
53267;SDS011;39156;51.176;6.738;2023-04-15T07:48:53;33.63;;;31.73;;
53267;SDS011;39156;51.176;6.738;2023-04-15T07:51:19;34.03;;;32.13;;
53267;SDS011;39156;51.176;6.738;2023-04-15T07:53:46;35.22;;;33.22;;
53267;SDS011;39156;51.176;6.738;2023-04-15T07:56:13;34.90;;;33.00;;
53267;SDS011;39156;51.176;6.738;2023-04-15T07:58:39;34.33;;;32.33;;
53267;SDS011;39156;51.176;6.738;2023-04-15T08:01:04;34.57;;;32.70;;
53267;SDS011;39156;51.176;6.738;2023-04-15T08:03:30;34.80;;;32.92;;
53267;SDS011;39156;51.176;6.738;2023-04-15T08:05:56;35.67;;;33.67;;
53267;SDS011;39156;51.176;6.738;2023-04-15T08:08:22;34.57;;;32.57;;
53267;SDS011;39156;51.176;6.738;2023-04-15T08:10:48;35.13;;;33.17;;
53267;SDS011;39156;51.176;6.738;2023-04-15T08:13:14;36.65;;;34.65;;
53267;SDS011;39156;51.176;6.738;2023-04-15T08:15:41;36.08;;;34.05;;
53267;SDS011;39156;51.176;6.738;2023-04-15T08:18:07;35.95;;;33.97;;
53267;SDS011;39156;51.176;6.738;2023-04-15T08:20:32;35.87;;;33.93;;
53267;SDS011;39156;51.176;6.738;2023-04-15T08:22:58;34.40;;;32.50;;
53267;SDS011;39156;51.176;6.738;2023-04-15T08:25:24;34.83;;;32.93;;
53267;SDS011;39156;51.176;6.738;2023-04-15T08:27:49;35.40;;;33.50;;
53267;SDS011;39156;51.176;6.738;2023-04-15T08:30:15;34.58;;;32.58;;
53267;SDS011;39156;51.176;6.738;2023-04-15T08:32:41;32.77;;;30.83;;
53267;SDS011;39156;51.176;6.738;2023-04-15T08:35:11;36.33;;;34.10;;
53267;SDS011;39156;51.176;6.738;2023-04-15T08:37:37;32.80;;;30.98;;
53267;SDS011;39156;51.176;6.738;2023-04-15T08:40:03;33.90;;;32.10;;
53267;SDS011;39156;51.176;6.738;2023-04-15T08:42:30;35.50;;;33.53;;
53267;SDS011;39156;51.176;6.738;2023-04-15T08:45:02;36.20;;;33.90;;
53267;SDS011;39156;51.176;6.738;2023-04-15T08:47:30;35.67;;;33.58;;
53267;SDS011;39156;51.176;6.738;2023-04-15T08:49:56;35.53;;;33.42;;
53267;SDS011;39156;51.176;6.738;2023-04-15T08:52:25;34.03;;;32.03;;
53267;SDS011;39156;51.176;6.738;2023-04-15T08:54:53;34.75;;;32.83;;
53267;SDS011;39156;51.176;6.738;2023-04-15T08:57:24;32.42;;;30.63;;
53267;SDS011;39156;51.176;6.738;2023-04-15T08:59:52;35.25;;;32.80;;
53267;SDS011;39156;51.176;6.738;2023-04-15T09:02:22;33.08;;;31.17;;
53267;SDS011;39156;51.176;6.738;2023-04-15T09:04:52;34.95;;;33.05;;
53267;SDS011;39156;51.176;6.738;2023-04-15T09:07:18;34.27;;;32.30;;
53267;SDS011;39156;51.176;6.738;2023-04-15T09:09:43;33.67;;;31.77;;
53267;SDS011;39156;51.176;6.738;2023-04-15T09:12:10;35.83;;;33.72;;
53267;SDS011;39156;51.176;6.738;2023-04-15T09:14:37;33.72;;;31.85;;
53267;SDS011;39156;51.176;6.738;2023-04-15T09:17:04;34.10;;;32.20;;
53267;SDS011;39156;51.176;6.738;2023-04-15T09:19:30;35.73;;;33.77;;
53267;SDS011;39156;51.176;6.738;2023-04-15T09:21:58;34.83;;;32.92;;
53267;SDS011;39156;51.176;6.738;2023-04-15T09:24:24;32.28;;;30.50;;
53267;SDS011;39156;51.176;6.738;2023-04-15T09:27:00;34.65;;;32.70;;
53267;SDS011;39156;51.176;6.738;2023-04-15T09:29:26;34.53;;;32.63;;
53267;SDS011;39156;51.176;6.738;2023-04-15T09:31:52;34.00;;;32.17;;
53267;SDS011;39156;51.176;6.738;2023-04-15T09:34:18;32.80;;;31.03;;
53267;SDS011;39156;51.176;6.738;2023-04-15T09:39:18;32.55;;;30.88;;
53267;SDS011;39156;51.176;6.738;2023-04-15T09:41:43;32.13;;;30.53;;
53267;SDS011;39156;51.176;6.738;2023-04-15T09:44:22;34.00;;;32.10;;
53267;SDS011;39156;51.176;6.738;2023-04-15T09:46:49;32.85;;;31.05;;
53267;SDS011;39156;51.176;6.738;2023-04-15T09:49:15;35.27;;;33.47;;
53267;SDS011;39156;51.176;6.738;2023-04-15T09:54:08;35.50;;;33.70;;
53267;SDS011;39156;51.176;6.738;2023-04-15T09:56:34;32.80;;;31.03;;
53267;SDS011;39156;51.176;6.738;2023-04-15T09:59:02;33.03;;;31.13;;
53267;SDS011;39156;51.176;6.738;2023-04-15T10:01:29;33.67;;;31.88;;
53267;SDS011;39156;51.176;6.738;2023-04-15T10:03:55;33.43;;;31.63;;
53267;SDS011;39156;51.176;6.738;2023-04-15T10:06:22;35.40;;;33.25;;
53267;SDS011;39156;51.176;6.738;2023-04-15T10:08:50;33.47;;;31.30;;
53267;SDS011;39156;51.176;6.738;2023-04-15T10:13:44;33.25;;;31.33;;
53267;SDS011;39156;51.176;6.738;2023-04-15T10:16:14;33.30;;;31.40;;
53267;SDS011;39156;51.176;6.738;2023-04-15T10:18:47;36.03;;;33.80;;
53267;SDS011;39156;51.176;6.738;2023-04-15T10:21:19;33.45;;;31.52;;
53267;SDS011;39156;51.176;6.738;2023-04-15T10:23:47;34.08;;;32.25;;
53267;SDS011;39156;51.176;6.738;2023-04-15T10:26:14;32.22;;;30.52;;
53267;SDS011;39156;51.176;6.738;2023-04-15T10:28:41;32.83;;;31.13;;
53267;SDS011;39156;51.176;6.738;2023-04-15T10:31:09;33.67;;;31.88;;
53267;SDS011;39156;51.176;6.738;2023-04-15T10:33:37;35.35;;;33.47;;
53267;SDS011;39156;51.176;6.738;2023-04-15T10:36:03;34.05;;;32.17;;
53267;SDS011;39156;51.176;6.738;2023-04-15T10:41:11;35.13;;;33.22;;
53267;SDS011;39156;51.176;6.738;2023-04-15T10:46:18;32.10;;;30.40;;
53267;SDS011;39156;51.176;6.738;2023-04-15T10:49:08;33.63;;;31.83;;
53267;SDS011;39156;51.176;6.738;2023-04-15T10:51:36;33.20;;;31.38;;
53267;SDS011;39156;51.176;6.738;2023-04-15T10:54:14;35.85;;;33.97;;
53267;SDS011;39156;51.176;6.738;2023-04-15T10:57:05;34.63;;;32.83;;
53267;SDS011;39156;51.176;6.738;2023-04-15T10:59:38;33.55;;;31.83;;
53267;SDS011;39156;51.176;6.738;2023-04-15T11:05:16;33.22;;;31.42;;
53267;SDS011;39156;51.176;6.738;2023-04-15T11:12:50;35.47;;;33.60;;
53267;SDS011;39156;51.176;6.738;2023-04-15T11:18:13;33.30;;;31.50;;
53267;SDS011;39156;51.176;6.738;2023-04-15T11:25:57;34.58;;;32.78;;
53267;SDS011;39156;51.176;6.738;2023-04-15T11:28:26;34.38;;;32.53;;
53267;SDS011;39156;51.176;6.738;2023-04-15T11:30:56;33.92;;;32.08;;
53267;SDS011;39156;51.176;6.738;2023-04-15T11:33:23;35.72;;;33.83;;
53267;SDS011;39156;51.176;6.738;2023-04-15T11:35:51;34.97;;;33.08;;
53267;SDS011;39156;51.176;6.738;2023-04-15T11:38:20;34.60;;;32.65;;
53267;SDS011;39156;51.176;6.738;2023-04-15T11:40:46;36.77;;;34.80;;
53267;SDS011;39156;51.176;6.738;2023-04-15T11:45:55;36.35;;;34.35;;
53267;SDS011;39156;51.176;6.738;2023-04-15T11:50:57;37.35;;;35.25;;
53267;SDS011;39156;51.176;6.738;2023-04-15T11:53:44;37.65;;;35.45;;
53267;SDS011;39156;51.176;6.738;2023-04-15T11:56:21;37.67;;;35.58;;
53267;SDS011;39156;51.176;6.738;2023-04-15T11:58:53;39.00;;;36.72;;
53267;SDS011;39156;51.176;6.738;2023-04-15T12:01:32;38.38;;;36.17;;
53267;SDS011;39156;51.176;6.738;2023-04-15T12:04:09;36.50;;;34.20;;
53267;SDS011;39156;51.176;6.738;2023-04-15T12:06:37;36.10;;;34.10;;
53267;SDS011;39156;51.176;6.738;2023-04-15T12:14:28;38.55;;;36.35;;
53267;SDS011;39156;51.176;6.738;2023-04-15T12:19:29;37.15;;;34.95;;
53267;SDS011;39156;51.176;6.738;2023-04-15T12:22:02;37.38;;;35.08;;
53267;SDS011;39156;51.176;6.738;2023-04-15T12:24:36;38.22;;;36.00;;
53267;SDS011;39156;51.176;6.738;2023-04-15T12:27:04;38.30;;;36.15;;
53267;SDS011;39156;51.176;6.738;2023-04-15T12:29:35;36.90;;;34.80;;
53267;SDS011;39156;51.176;6.738;2023-04-15T12:32:05;36.80;;;34.80;;
53267;SDS011;39156;51.176;6.738;2023-04-15T12:34:33;37.00;;;34.90;;
53267;SDS011;39156;51.176;6.738;2023-04-15T12:37:09;38.15;;;36.05;;
53267;SDS011;39156;51.176;6.738;2023-04-15T12:39:38;38.28;;;36.10;;
53267;SDS011;39156;51.176;6.738;2023-04-15T12:42:06;35.20;;;33.30;;
53267;SDS011;39156;51.176;6.738;2023-04-15T12:44:33;35.92;;;34.03;;
53267;SDS011;39156;51.176;6.738;2023-04-15T12:49:26;34.90;;;32.80;;
53267;SDS011;39156;51.176;6.738;2023-04-15T12:51:52;35.72;;;33.72;;
53267;SDS011;39156;51.176;6.738;2023-04-15T12:54:26;37.13;;;35.13;;
53267;SDS011;39156;51.176;6.738;2023-04-15T12:56:56;36.45;;;34.40;;
53267;SDS011;39156;51.176;6.738;2023-04-15T12:59:23;35.05;;;32.95;;
53267;SDS011;39156;51.176;6.738;2023-04-15T13:01:49;37.08;;;34.88;;
53267;SDS011;39156;51.176;6.738;2023-04-15T13:04:16;36.20;;;34.20;;
53267;SDS011;39156;51.176;6.738;2023-04-15T13:06:43;36.72;;;34.83;;
53267;SDS011;39156;51.176;6.738;2023-04-15T13:09:09;36.53;;;34.53;;
53267;SDS011;39156;51.176;6.738;2023-04-15T13:11:35;36.50;;;34.55;;
53267;SDS011;39156;51.176;6.738;2023-04-15T13:14:01;37.35;;;35.35;;
53267;SDS011;39156;51.176;6.738;2023-04-15T13:16:29;36.90;;;34.90;;
53267;SDS011;39156;51.176;6.738;2023-04-15T13:18:55;35.03;;;33.13;;
53267;SDS011;39156;51.176;6.738;2023-04-15T13:21:23;34.83;;;32.95;;
53267;SDS011;39156;51.176;6.738;2023-04-15T13:23:49;35.50;;;33.60;;
53267;SDS011;39156;51.176;6.738;2023-04-15T13:26:16;35.33;;;33.40;;
53267;SDS011;39156;51.176;6.738;2023-04-15T13:28:42;37.35;;;35.35;;
53267;SDS011;39156;51.176;6.738;2023-04-15T13:31:07;36.30;;;34.40;;
53267;SDS011;39156;51.176;6.738;2023-04-15T13:33:33;35.35;;;33.45;;
53267;SDS011;39156;51.176;6.738;2023-04-15T13:35:59;36.92;;;34.92;;
53267;SDS011;39156;51.176;6.738;2023-04-15T13:38:24;36.20;;;34.20;;
53267;SDS011;39156;51.176;6.738;2023-04-15T13:40:50;36.85;;;34.80;;
53267;SDS011;39156;51.176;6.738;2023-04-15T13:43:16;37.08;;;35.08;;
53267;SDS011;39156;51.176;6.738;2023-04-15T13:45:42;37.80;;;35.70;;
53267;SDS011;39156;51.176;6.738;2023-04-15T13:48:08;36.17;;;33.97;;
53267;SDS011;39156;51.176;6.738;2023-04-15T13:50:34;35.60;;;33.60;;
53267;SDS011;39156;51.176;6.738;2023-04-15T13:53:00;36.90;;;34.80;;
53267;SDS011;39156;51.176;6.738;2023-04-15T13:55:26;36.70;;;34.60;;
53267;SDS011;39156;51.176;6.738;2023-04-15T13:57:52;37.13;;;35.10;;
53267;SDS011;39156;51.176;6.738;2023-04-15T14:00:17;36.72;;;34.72;;
53267;SDS011;39156;51.176;6.738;2023-04-15T14:02:43;36.88;;;34.47;;
53267;SDS011;39156;51.176;6.738;2023-04-15T14:05:09;38.80;;;36.27;;
53267;SDS011;39156;51.176;6.738;2023-04-15T14:07:35;37.50;;;35.40;;
53267;SDS011;39156;51.176;6.738;2023-04-15T14:10:01;35.92;;;33.92;;
53267;SDS011;39156;51.176;6.738;2023-04-15T14:12:27;34.72;;;32.90;;
53267;SDS011;39156;51.176;6.738;2023-04-15T14:14:53;36.00;;;34.00;;
53267;SDS011;39156;51.176;6.738;2023-04-15T14:17:19;36.55;;;34.38;;
53267;SDS011;39156;51.176;6.738;2023-04-15T14:19:44;37.65;;;35.45;;
53267;SDS011;39156;51.176;6.738;2023-04-15T14:22:10;37.28;;;35.28;;
53267;SDS011;39156;51.176;6.738;2023-04-15T14:24:36;36.70;;;34.70;;
53267;SDS011;39156;51.176;6.738;2023-04-15T14:27:02;35.05;;;33.17;;
53267;SDS011;39156;51.176;6.738;2023-04-15T14:29:27;35.92;;;33.72;;
53267;SDS011;39156;51.176;6.738;2023-04-15T14:31:53;37.28;;;35.08;;
53267;SDS011;39156;51.176;6.738;2023-04-15T14:34:21;36.88;;;34.67;;
53267;SDS011;39156;51.176;6.738;2023-04-15T14:36:49;37.22;;;35.13;;
53267;SDS011;39156;51.176;6.738;2023-04-15T14:39:17;36.40;;;34.30;;
53267;SDS011;39156;51.176;6.738;2023-04-15T14:41:43;36.60;;;34.60;;
53267;SDS011;39156;51.176;6.738;2023-04-15T14:44:09;37.20;;;35.10;;
53267;SDS011;39156;51.176;6.738;2023-04-15T14:46:36;35.20;;;33.20;;
53267;SDS011;39156;51.176;6.738;2023-04-15T14:49:02;35.38;;;33.35;;
53267;SDS011;39156;51.176;6.738;2023-04-15T14:51:29;35.40;;;33.40;;
53267;SDS011;39156;51.176;6.738;2023-04-15T14:53:55;37.58;;;35.47;;
53267;SDS011;39156;51.176;6.738;2023-04-15T14:56:21;36.90;;;34.80;;
53267;SDS011;39156;51.176;6.738;2023-04-15T14:58:47;35.90;;;34.00;;
53267;SDS011;39156;51.176;6.738;2023-04-15T15:01:13;36.37;;;33.50;;
53267;SDS011;39156;51.176;6.738;2023-04-15T15:03:39;37.03;;;35.03;;
53267;SDS011;39156;51.176;6.738;2023-04-15T15:06:05;35.28;;;32.85;;
53267;SDS011;39156;51.176;6.738;2023-04-15T15:08:31;36.08;;;34.08;;
53267;SDS011;39156;51.176;6.738;2023-04-15T15:10:56;35.67;;;33.78;;